Middletown Township, Pennsylvania
Current Conditions -  °F | °C
As of 4:54 AM on Sunday 23 Nov 2014 (Local Time) from KPNE Reporting Station
Overcast Overcast  
Wind Chill: 33°   Ceiling: 11000
Heat Index: 38°   Visibility: 10mi
Dew Point: 23°   Wind: 6mph
Humidity: 55%   Direction: 200°SSW
Pressure: 30.22"   Gusts: NA
Location:  40.1547°N, 74.8824°W
Report Text: KPNE 230954Z AUTO 20005KT 10SM OVC110 03/M05 A3022 RMK AO2 SLP235 T00331050 TSNO
Loading
Personal Weather Stations






























Interactive Weather Map New forecast layout! Learn more

10-Day Weather Forecast

Advertisements
Track Severe Weather on mobile